Time;durP1;ratioP1;P1;durP2;ratioP2;P2;SDS_P1;SDS_P2;PMS_P1;PMS_P2;Temp;Humidity;BMP_temperature;BMP_pressure;BME280_temperature;BME280_humidity;BME280_pressure;Samples;Min_cycle;Max_cycle;Signal;HPM_P1;HPM_P2
2021/05/06 00:34:33;;;;;;;2.08;1.10;;;6.80;86.10;;;;;;6132480;23;20641;-96
2021/05/06 00:37:25;;;;;;;;;;;;;;;;;;;;;
2021/05/06 00:40:07;;;;;;;2.42;1.50;;;6.70;86.30;;;;;;6132240;23;20021;-94
2021/05/06 00:46:27;;;;;;;5.07;1.33;;;6.60;86.90;;;;;;6131749;23;20040;-95
2021/05/06 00:55:19;;;;;;;5.68;1.60;;;6.70;86.30;;;;;;6132055;23;20041;-95
2021/05/06 01:06:48;;;;;;;3.90;1.17;;;6.80;85.30;;;;;;6131998;23;20100;-96
2021/05/06 01:09:42;;;;;;;;;;;;;;;;;;;;;
2021/05/06 01:15:28;;;;;;;2.25;1.45;;;6.80;85.70;;;;;;6106687;23;20018;-96
2021/05/06 01:18:49;;;;;;;3.97;2.13;;;6.70;86.10;;;;;;6123827;23;20002;-96
2021/05/06 01:30:14;;;;;;;2.03;1.60;;;6.60;86.60;;;;;;6132292;23;20021;-96
2021/05/06 01:33:08;;;;;;;;;;;;;;;;;;;;;
2021/05/06 01:39:42;;;;;;;7.85;1.70;;;6.50;87.10;;;;;;6131144;23;20017;-96
2021/05/06 02:05:19;;;;;;;4.03;2.20;;;6.40;88.20;;;;;;6133046;23;20032;-95
2021/05/06 02:08:04;;;;;;;2.92;2.33;;;6.40;88.60;;;;;;6132355;23;20377;-96
2021/05/06 02:10:40;;;;;;;2.58;2.20;;;6.40;88.40;;;;;;6101548;23;20069;-96
2021/05/06 02:13:08;;;;;;;6.07;2.25;;;6.40;88.60;;;;;;6110848;23;20116;-96
2021/05/06 02:18:49;;;;;;;3.05;2.30;;;6.40;88.40;;;;;;6133254;23;20016;-96
2021/05/06 02:24:20;;;;;;;2.60;1.60;;;6.50;88.40;;;;;;6133192;23;20078;-95
2021/05/06 02:26:53;;;;;;;3.15;2.15;;;6.50;88.60;;;;;;6132152;23;20010;-96
2021/05/06 02:29:18;;;;;;;;;;;6.40;88.70;;;;;;6132794;23;20006;-96
2021/05/06 02:31:58;;;;;;;4.20;2.55;;;6.40;88.90;;;;;;6132518;23;19919;-96
2021/05/06 02:34:41;;;;;;;2.08;1.80;;;6.30;89.20;;;;;;6131072;23;20014;-96
2021/05/06 02:37:08;;;;;;;2.72;2.45;;;6.30;89.30;;;;;;6131767;23;20006;-95
2021/05/06 02:39:39;;;;;;;4.18;2.45;;;6.30;89.20;;;;;;6132368;23;20017;-96
2021/05/06 02:42:17;;;;;;;2.60;2.30;;;6.30;89.50;;;;;;6101276;23;20010;-96
2021/05/06 02:44:42;;;;;;;4.35;2.78;;;6.30;89.40;;;;;;6156132;23;20379;-96
2021/05/06 02:47:40;;;;;;;;;;;;;;;;;;;;;
2021/05/06 02:50:23;;;;;;;5.95;2.03;;;6.30;89.00;;;;;;6100565;23;20048;-96
2021/05/06 02:53:00;;;;;;;4.57;2.13;;;6.30;89.10;;;;;;6139093;23;20064;-96
2021/05/06 02:55:37;;;;;;;2.50;1.80;;;6.30;89.10;;;;;;6131363;23;20010;-96
2021/05/06 02:58:16;;;;;;;;;;;;;;;;;;;;;
2021/05/06 03:03:28;;;;;;;3.38;2.13;;;6.40;89.30;;;;;;6133244;23;20017;-95
2021/05/06 03:05:54;;;;;;;3.42;2.63;;;6.30;89.30;;;;;;6131148;23;20006;-96
2021/05/06 03:08:34;;;;;;;2.88;2.30;;;6.30;89.50;;;;;;6132189;23;20283;-95
2021/05/06 03:22:41;;;;;;;2.00;1.70;;;6.20;89.50;;;;;;6133220;23;20373;-96
2021/05/06 03:24:37;;;;;;;3.70;2.28;;;6.20;89.60;;;;;;6132802;23;20014;-95
2021/05/06 03:27:27;;;;;;;3.33;1.88;;;6.20;89.90;;;;;;6132114;23;20068;-95
2021/05/06 03:35:52;;;;;;;3.10;2.20;;;6.10;89.90;;;;;;6143124;23;20009;-95
2021/05/06 03:44:37;;;;;;;4.97;2.85;;;6.10;89.90;;;;;;6132810;23;20041;-95
2021/05/06 04:03:20;;;;;;;3.70;1.83;;;6.00;90.30;;;;;;6132541;23;20016;-96
2021/05/06 04:03:28;;;;;;;2.97;2.20;;;6.00;90.40;;;;;;6133262;23;20017;-96
2021/05/06 04:25:34;;;;;;;2.90;2.00;;;6.20;90.60;;;;;;6132347;23;20041;-96
2021/05/06 04:35:27;;;;;;;3.03;2.13;;;6.20;90.60;;;;;;6043850;23;20016;-96
2021/05/06 05:04:42;;;;;;;3.15;1.92;;;6.70;89.40;;;;;;5875515;24;20370;-94
2021/05/06 05:07:36;;;;;;;6.30;2.63;;;6.80;88.60;;;;;;5850250;24;20035;-96
2021/05/06 05:26:10;;;;;;;1.98;1.65;;;7.30;87.30;;;;;;6133825;23;20016;-94
2021/05/06 05:29:10;;;;;;;3.47;2.35;;;7.30;87.80;;;;;;6132421;23;20010;-94
2021/05/06 05:32:38;;;;;;;2.92;2.25;;;7.30;87.30;;;;;;6131533;23;20017;-96
2021/05/06 06:03:15;;;;;;;3.67;2.05;;;8.10;85.40;;;;;;5960177;24;20007;-96
2021/05/06 06:26:34;;;;;;;2.40;1.77;;;8.80;81.90;;;;;;6061730;23;20013;-93
2021/05/06 06:29:53;;;;;;;1.52;1.20;;;8.90;81.80;;;;;;6049073;23;20006;-96
2021/05/06 07:08:22;;;;;;;2.95;1.65;;;9.60;78.40;;;;;;6015921;23;20039;-95
2021/05/06 07:11:10;;;;;;;2.20;1.30;;;9.50;78.50;;;;;;6014896;23;20098;-94
2021/05/06 07:13:36;;;;;;;3.97;1.52;;;9.60;78.80;;;;;;6015638;23;20012;-95
2021/05/06 07:16:40;;;;;;;3.17;2.13;;;9.60;78.30;;;;;;5992602;23;20086;-95
2021/05/06 07:40:14;;;;;;;4.07;1.25;;;10.20;76.20;;;;;;6015785;23;20375;-96
2021/05/06 07:46:10;;;;;;;1.15;0.75;;;10.70;75.70;;;;;;6099458;23;20258;-93
2021/05/06 10:24:06;;;;;;;1.65;0.60;;;12.20;60.30;;;;;;6133598;23;20013;-94
2021/05/06 10:26:44;;;;;;;2.30;0.77;;;12.40;61.80;;;;;;6132201;23;20001;-94
2021/05/06 10:29:17;;;;;;;0.85;0.50;;;12.60;58.90;;;;;;6132539;23;20076;-94
2021/05/06 10:32:37;;;;;;;0.68;0.50;;;12.70;58.50;;;;;;6132655;23;20009;-96
2021/05/06 10:35:31;;;;;;;1.50;0.80;;;12.80;59.30;;;;;;6130116;23;20006;-96
2021/05/06 10:38:18;;;;;;;1.65;0.50;;;12.90;59.50;;;;;;6132298;23;20006;-94
2021/05/06 10:44:15;;;;;;;2.70;0.73;;;13.40;57.70;;;;;;6133562;23;20005;-94
2021/05/06 10:52:40;;;;;;;1.55;0.60;;;13.70;55.70;;;;;;6132761;23;20006;-92
2021/05/06 10:55:10;;;;;;;2.38;1.75;;;13.70;56.50;;;;;;6131688;23;20084;-91
2021/05/06 10:58:04;;;;;;;1.85;0.57;;;13.90;56.70;;;;;;6131881;23;20010;-91
2021/05/06 11:00:33;;;;;;;2.15;0.65;;;14.00;55.20;;;;;;6131184;23;20101;-94
2021/05/06 11:02:59;;;;;;;2.95;1.23;;;14.00;54.70;;;;;;6132447;23;20010;-91
2021/05/06 11:06:01;;;;;;;6.30;0.90;;;14.10;58.40;;;;;;6132350;23;20096;-93
2021/05/06 11:08:32;;;;;;;0.90;0.50;;;14.10;54.90;;;;;;6156889;23;20002;-93
2021/05/06 11:11:13;;;;;;;1.60;0.57;;;14.30;55.50;;;;;;6131502;23;20002;-92
2021/05/06 11:14:05;;;;;;;3.70;0.80;;;14.50;53.50;;;;;;6107521;23;20002;-92
2021/05/06 11:17:10;;;;;;;0.88;0.65;;;14.60;52.40;;;;;;6132084;23;20002;-93
2021/05/06 11:19:44;;;;;;;1.67;0.70;;;14.70;54.00;;;;;;6138072;23;20017;-92
2021/05/06 11:22:51;;;;;;;2.45;0.70;;;14.60;52.40;;;;;;6130918;23;20030;-93
2021/05/06 11:31:59;;;;;;;1.95;0.50;;;14.60;50.40;;;;;;6044148;23;20031;-92
2021/05/06 11:34:34;;;;;;;1.60;0.75;;;14.60;52.30;;;;;;5997386;23;20022;-90
2021/05/06 11:37:32;;;;;;;3.75;1.02;;;14.60;51.30;;;;;;6131135;23;20014;-91
2021/05/06 11:40:03;;;;;;;0.90;0.60;;;14.70;54.70;;;;;;6130465;23;20208;-91
2021/05/06 11:42:37;;;;;;;4.35;0.60;;;15.00;51.00;;;;;;6130793;23;20010;-90
2021/05/06 11:45:23;;;;;;;2.70;0.60;;;15.00;49.10;;;;;;6131105;23;20175;-91
2021/05/06 11:47:50;;;;;;;1.85;0.68;;;14.80;50.80;;;;;;6130901;23;20077;-89
2021/05/06 12:10:41;;;;;;;1.75;0.60;;;13.60;53.90;;;;;;6073018;23;20164;-92
2021/05/06 12:13:50;;;;;;;;;;;;;;;;;;;;;
2021/05/06 12:16:29;;;;;;;3.63;1.23;;;13.70;53.70;;;;;;6023405;23;20033;-92
2021/05/06 12:19:03;;;;;;;4.38;0.85;;;13.70;54.00;;;;;;6047389;23;20014;-91
2021/05/06 12:21:40;;;;;;;3.03;0.80;;;13.80;55.30;;;;;;6115726;23;20088;-92
2021/05/06 12:24:37;;;;;;;;;;;;;;;;;;;;;
2021/05/06 12:27:59;;;;;;;0.95;0.65;;;14.50;54.00;;;;;;6129064;23;20030;-92
2021/05/06 12:33:48;;;;;;;5.00;1.02;;;14.40;52.40;;;;;;6132217;23;20005;-90
2021/05/06 12:36:14;;;;;;;2.22;0.68;;;14.30;55.20;;;;;;6129810;23;20041;-89
2021/05/06 12:38:42;;;;;;;1.00;0.52;;;14.50;56.50;;;;;;6129571;23;20302;-89
2021/05/06 12:41:16;;;;;;;4.13;0.60;;;14.80;51.30;;;;;;6129422;23;20013;-91
2021/05/06 12:44:02;;;;;;;2.42;0.60;;;15.00;51.40;;;;;;6130876;23;20105;-93
2021/05/06 12:46:35;;;;;;;3.40;0.80;;;14.90;51.30;;;;;;6131530;23;20006;-92
2021/05/06 12:49:01;;;;;;;1.20;0.50;;;14.90;52.60;;;;;;6130279;23;20490;-91
2021/05/06 12:52:22;;;;;;;1.90;0.98;;;15.00;53.00;;;;;;6130700;23;20005;-92
2021/05/06 12:55:31;;;;;;;2.22;1.02;;;15.20;52.00;;;;;;6048020;23;20022;-93
2021/05/06 13:05:19;;;;;;;1.40;0.77;;;15.00;54.20;;;;;;6072367;23;20190;-92
2021/05/06 13:08:01;;;;;;;1.83;0.90;;;14.80;54.30;;;;;;6050406;23;20375;-91
2021/05/06 13:21:24;;;;;;;3.85;0.95;;;14.30;53.90;;;;;;6015040;23;20068;-92
2021/05/06 13:24:07;;;;;;;3.60;1.05;;;14.20;53.80;;;;;;6014658;23;20024;-95
2021/05/06 13:26:39;;;;;;;5.43;1.15;;;14.10;53.30;;;;;;6067088;23;20069;-92
2021/05/06 13:29:14;;;;;;;3.92;0.63;;;14.00;55.50;;;;;;6057888;23;20041;-91
2021/05/06 13:31:41;;;;;;;0.75;0.50;;;13.90;57.30;;;;;;6131492;23;20220;-88
2021/05/06 13:34:17;;;;;;;2.05;0.80;;;14.20;56.60;;;;;;6129578;23;20081;-90
2021/05/06 13:37:02;;;;;;;2.13;0.60;;;14.50;54.10;;;;;;6128696;23;20034;-88
2021/05/06 13:39:28;;;;;;;0.88;0.70;;;14.70;55.20;;;;;;6131033;23;20006;-91
2021/05/06 13:41:55;;;;;;;1.60;0.65;;;15.10;54.30;;;;;;6132381;23;20006;-90
2021/05/06 13:44:24;;;;;;;1.52;0.73;;;15.30;52.00;;;;;;6130751;23;20101;-91
2021/05/06 13:46:53;;;;;;;1.85;0.63;;;15.50;53.00;;;;;;6132068;23;20014;-92
2021/05/06 13:49:27;;;;;;;3.88;0.63;;;15.50;51.60;;;;;;6132804;23;20089;-89
2021/05/06 13:51:58;;;;;;;3.70;0.82;;;15.60;52.30;;;;;;6133205;23;20038;-92
2021/05/06 13:54:31;;;;;;;2.88;0.68;;;15.70;50.60;;;;;;6133529;23;20334;-93
2021/05/06 13:57:13;;;;;;;4.10;0.95;;;15.60;51.00;;;;;;6132706;23;20002;-93
2021/05/06 14:00:06;;;;;;;1.33;0.68;;;15.60;50.90;;;;;;6132803;23;20009;-94
2021/05/06 14:02:31;;;;;;;;;;;15.60;48.60;;;;;;6133030;23;20093;-90
2021/05/06 14:05:43;;;;;;;2.75;0.85;;;15.30;50.40;;;;;;6132807;23;19905;-92
2021/05/06 14:08:44;;;;;;;1.30;0.73;;;15.30;51.00;;;;;;6125625;23;20037;-94
2021/05/06 14:18:26;;;;;;;5.45;0.60;;;15.20;48.40;;;;;;6105632;23;20044;-91
2021/05/06 14:34:53;;;;;;;1.10;0.70;;;14.30;50.50;;;;;;6133367;23;20037;-95
2021/05/06 14:54:32;;;;;;;1.45;0.80;;;14.60;50.90;;;;;;6132870;23;20017;-91
2021/05/06 14:57:20;;;;;;;1.65;0.57;;;14.60;49.70;;;;;;6132239;23;20002;-94
2021/05/06 15:03:15;;;;;;;2.50;0.85;;;14.60;53.30;;;;;;6014773;23;20011;-92
2021/05/06 15:05:41;;;;;;;3.92;0.93;;;14.60;53.80;;;;;;6124841;23;20009;-92
2021/05/06 15:08:07;;;;;;;2.58;0.98;;;14.70;54.10;;;;;;6131019;23;20010;-92
2021/05/06 15:10:33;;;;;;;3.50;1.15;;;14.60;53.50;;;;;;6131326;23;20073;-91
2021/05/06 15:12:59;;;;;;;1.73;0.90;;;14.70;54.50;;;;;;6132075;23;20030;-91
2021/05/06 15:15:25;;;;;;;1.70;0.60;;;14.70;54.50;;;;;;6131609;23;20009;-91
2021/05/06 15:17:54;;;;;;;1.55;0.63;;;14.60;54.50;;;;;;6132020;23;20025;-92
2021/05/06 15:20:23;;;;;;;6.25;0.85;;;14.50;54.60;;;;;;6131246;23;20286;-91
2021/05/06 15:22:49;;;;;;;1.17;0.75;;;14.50;55.60;;;;;;6130872;23;20624;-92
2021/05/06 15:25:15;;;;;;;1.83;0.98;;;14.50;55.20;;;;;;6131431;23;20053;-92
2021/05/06 15:27:45;;;;;;;2.67;0.85;;;14.50;55.70;;;;;;6131159;23;20346;-93
2021/05/06 15:30:17;;;;;;;1.17;0.90;;;14.50;56.20;;;;;;6131201;23;20009;-91
2021/05/06 15:32:43;;;;;;;1.27;0.87;;;14.60;55.60;;;;;;6139969;23;20072;-93
2021/05/06 15:35:09;;;;;;;2.42;1.77;;;14.60;56.40;;;;;;6131921;23;20230;-93
2021/05/06 15:37:38;;;;;;;1.90;1.00;;;14.50;55.90;;;;;;6131713;23;20076;-91
2021/05/06 15:40:06;;;;;;;1.30;0.80;;;14.40;56.70;;;;;;6131443;23;20002;-93
2021/05/06 15:42:32;;;;;;;3.08;1.08;;;14.40;58.00;;;;;;6131513;23;20361;-92
2021/05/06 15:44:57;;;;;;;7.18;1.08;;;14.30;60.40;;;;;;6131614;23;20006;-93
2021/05/06 15:47:23;;;;;;;3.92;0.90;;;14.10;59.90;;;;;;6131479;23;20020;-93
2021/05/06 15:49:49;;;;;;;1.67;0.80;;;14.00;63.10;;;;;;6130973;23;20109;-93
2021/05/06 15:52:15;;;;;;;2.80;1.52;;;13.90;64.50;;;;;;6131488;23;20010;-93
2021/05/06 15:54:41;;;;;;;4.25;1.35;;;13.80;63.80;;;;;;6131427;23;20013;-93
2021/05/06 15:57:08;;;;;;;2.22;1.95;;;13.70;65.10;;;;;;6131385;23;20006;-93
2021/05/06 15:59:36;;;;;;;1.98;1.10;;;13.60;63.80;;;;;;6131543;23;20048;-93
2021/05/06 16:02:07;;;;;;;2.45;1.30;;;13.40;64.40;;;;;;6131355;23;20088;-94
2021/05/06 16:04:36;;;;;;;1.40;0.80;;;13.30;64.00;;;;;;6129848;23;20072;-94
2021/05/06 16:07:02;;;;;;;1.17;0.93;;;13.10;63.80;;;;;;6132001;23;20010;-93
2021/05/06 16:09:27;;;;;;;2.83;1.20;;;13.00;63.90;;;;;;6132166;23;20048;-94
2021/05/06 16:11:56;;;;;;;2.83;1.33;;;13.00;62.70;;;;;;6131924;23;20354;-92
2021/05/06 16:17:32;;;;;;;6.85;2.10;;;12.90;65.20;;;;;;6132227;23;20236;-92
2021/05/06 16:20:17;;;;;;;;;;;;;;;;;;;;;
2021/05/06 16:22:52;;;;;;;2.53;1.13;;;12.70;66.30;;;;;;6132267;23;20037;-93
2021/05/06 16:25:19;;;;;;;2.80;1.25;;;12.70;66.00;;;;;;6131187;23;20017;-94
2021/05/06 16:27:45;;;;;;;7.13;2.05;;;12.60;65.90;;;;;;6131304;23;20016;-93
2021/05/06 16:30:14;;;;;;;4.03;1.52;;;12.60;67.10;;;;;;6131728;23;20093;-93
2021/05/06 16:32:51;;;;;;;4.88;2.50;;;12.50;68.00;;;;;;6131544;23;20002;-94
2021/05/06 16:35:24;;;;;;;4.95;2.30;;;12.50;66.90;;;;;;6131607;23;20041;-93
2021/05/06 16:37:59;;;;;;;6.63;2.17;;;12.50;65.20;;;;;;6131436;23;20006;-93
2021/05/06 16:40:51;;;;;;;2.83;2.08;;;12.50;65.90;;;;;;6131514;23;20073;-93
2021/05/06 16:46:25;;;;;;;4.68;1.20;;;12.50;65.90;;;;;;6091448;23;20010;-92
2021/05/06 16:48:54;;;;;;;1.83;1.10;;;12.50;66.10;;;;;;6130462;23;20006;-93
2021/05/06 16:51:25;;;;;;;2.20;1.15;;;12.40;66.60;;;;;;6131358;23;20025;-93
2021/05/06 16:53:55;;;;;;;2.75;1.00;;;12.40;67.00;;;;;;6131481;23;20013;-94
2021/05/06 16:56:25;;;;;;;2.10;1.00;;;12.40;68.20;;;;;;6106447;23;20005;-93
2021/05/06 16:59:13;;;;;;;3.28;1.63;;;12.30;68.60;;;;;;6107464;23;20006;-93
2021/05/06 17:01:41;;;;;;;2.90;1.40;;;12.30;69.90;;;;;;6130929;23;20006;-93
2021/05/06 17:04:08;;;;;;;3.08;2.03;;;12.30;71.10;;;;;;6131759;23;20010;-93
2021/05/06 17:06:42;;;;;;;5.45;2.22;;;12.20;71.20;;;;;;6131006;23;20254;-94
2021/05/06 17:09:19;;;;;;;4.25;1.92;;;12.20;72.40;;;;;;6130954;23;20016;-94
2021/05/06 17:11:47;;;;;;;2.65;1.38;;;12.20;72.20;;;;;;6130031;23;20021;-93
2021/05/06 17:17:02;;;;;;;2.03;1.48;;;12.20;72.90;;;;;;6134109;23;20311;-94
2021/05/06 17:19:35;;;;;;;2.15;1.30;;;12.20;72.30;;;;;;6133852;23;20397;-94
2021/05/06 17:22:59;;;;;;;2.95;1.40;;;12.20;72.40;;;;;;6133962;23;20287;-93
2021/05/06 17:25:24;;;;;;;2.20;1.27;;;12.20;73.60;;;;;;6116264;23;20010;-94
2021/05/06 17:28:18;;;;;;;2.55;1.40;;;12.20;72.60;;;;;;6133404;23;20033;-93
2021/05/06 17:30:43;;;;;;;3.25;1.60;;;12.20;71.90;;;;;;6108395;23;20149;-94
2021/05/06 17:40:01;;;;;;;2.05;1.23;;;12.30;72.40;;;;;;5988951;24;20072;-94
2021/05/06 17:42:40;;;;;;;2.97;1.40;;;12.30;72.40;;;;;;6044259;23;20639;-95
2021/05/06 17:45:58;;;;;;;3.30;1.35;;;12.40;71.60;;;;;;6050297;23;20292;-96
2021/05/06 17:49:15;;;;;;;4.70;1.75;;;12.40;73.20;;;;;;6049671;23;20011;-93
2021/05/06 17:51:48;;;;;;;7.38;1.50;;;12.50;70.50;;;;;;6031858;23;20018;-93
2021/05/06 17:54:27;;;;;;;2.55;1.20;;;12.50;71.70;;;;;;6049836;23;20017;-94
2021/05/06 17:57:45;;;;;;;;;;;;;;;;;;;;;
2021/05/06 18:00:24;;;;;;;5.60;2.17;;;12.50;70.40;;;;;;5988577;24;20023;-94
2021/05/06 18:03:22;;;;;;;2.92;1.65;;;12.50;69.60;;;;;;5965588;24;20102;-94
2021/05/06 18:19:35;;;;;;;6.60;2.25;;;12.40;66.80;;;;;;5854006;24;20017;-92
2021/05/06 18:25:43;;;;;;;5.95;1.58;;;12.30;67.40;;;;;;5932294;24;20016;-93
2021/05/06 18:28:23;;;;;;;1.95;1.13;;;12.20;68.80;;;;;;5909899;24;20013;-95
2021/05/06 18:31:41;;;;;;;3.42;1.13;;;12.10;69.50;;;;;;5942764;23;20241;-95
2021/05/06 18:38:09;;;;;;;4.00;1.80;;;12.00;71.60;;;;;;5906121;24;20069;-95
2021/05/06 18:44:27;;;;;;;4.22;1.02;;;11.90;71.60;;;;;;6001374;23;20054;-93
2021/05/06 18:47:01;;;;;;;2.38;1.70;;;11.90;72.10;;;;;;6050454;23;20006;-95
2021/05/06 18:49:28;;;;;;;2.97;1.25;;;11.90;73.50;;;;;;6131518;23;20063;-93
2021/05/06 18:52:17;;;;;;;2.08;1.17;;;11.90;72.60;;;;;;6132631;23;20612;-94
2021/05/06 19:16:43;;;;;;;3.90;1.55;;;11.60;74.00;;;;;;5984821;23;20007;-93
2021/05/06 19:26:29;;;;;;;1.85;1.52;;;11.40;73.90;;;;;;6016773;23;20006;-95
2021/05/06 20:31:06;;;;;;;1.75;1.08;;;11.20;75.40;;;;;;6015144;23;20015;-93
2021/05/06 20:34:22;;;;;;;2.53;1.55;;;11.20;75.50;;;;;;6043841;23;20014;-93
